Time;durP1;ratioP1;P1;durP2;ratioP2;P2;SDS_P1;SDS_P2;PMS_P1;PMS_P2;Temp;Humidity;BMP_temperature;BMP_pressure;BME280_temperature;BME280_humidity;BME280_pressure;Samples;Min_cycle;Max_cycle;Signal;HPM_P1;HPM_P2
2021/03/29 04:12:28;;;;;;;7.22;2.17;;;3.30;99.90;;;;;;5091738;28;20637;-67
2021/03/29 04:14:54;;;;;;;6.55;2.17;;;3.30;99.90;;;;;;5094883;28;20036;-67
2021/03/29 04:17:20;;;;;;;2.65;1.95;;;3.30;99.90;;;;;;5095056;28;20066;-67
2021/03/29 04:19:45;;;;;;;3.53;1.70;;;3.30;99.90;;;;;;5094849;28;20115;-67
2021/03/29 04:22:11;;;;;;;4.05;2.00;;;3.30;99.90;;;;;;5094771;28;20063;-67
2021/03/29 04:24:37;;;;;;;4.55;2.10;;;3.30;99.90;;;;;;5094818;28;20103;-67
2021/03/29 04:27:03;;;;;;;7.47;2.10;;;3.30;99.90;;;;;;5095001;28;20020;-67
2021/03/29 04:29:29;;;;;;;8.32;2.10;;;3.30;99.90;;;;;;5094979;28;20059;-66
2021/03/29 04:31:54;;;;;;;3.88;1.80;;;3.30;99.90;;;;;;5094910;28;20071;-65
2021/03/29 04:34:20;;;;;;;8.70;2.15;;;3.30;99.90;;;;;;5094437;28;20518;-64
2021/03/29 04:36:46;;;;;;;3.83;1.73;;;3.30;99.90;;;;;;5094701;28;20111;-66
2021/03/29 04:39:12;;;;;;;8.52;1.30;;;3.30;99.90;;;;;;5094352;28;20024;-71
2021/03/29 04:41:37;;;;;;;4.60;2.17;;;3.60;99.90;;;;;;5094347;28;20141;-67
2021/03/29 04:44:03;;;;;;;5.35;1.60;;;5.10;99.90;;;;;;5094365;28;20032;-66
2021/03/29 04:46:29;;;;;;;3.47;1.60;;;4.80;99.90;;;;;;5094076;28;20432;-67
2021/03/29 04:48:55;;;;;;;3.25;1.70;;;4.40;99.90;;;;;;5091314;28;20020;-67
2021/03/29 04:51:20;;;;;;;6.30;1.77;;;4.10;99.90;;;;;;5093553;28;20467;-65
2021/03/29 04:53:46;;;;;;;5.88;1.90;;;4.00;99.90;;;;;;5093746;28;20112;-68
2021/03/29 04:56:12;;;;;;;3.00;1.90;;;3.80;99.90;;;;;;5093111;28;20047;-66
2021/03/29 04:58:38;;;;;;;6.63;2.05;;;3.70;99.90;;;;;;5093364;28;20020;-66
2021/03/29 05:01:04;;;;;;;6.97;2.10;;;3.70;99.90;;;;;;5093280;28;20036;-65
2021/03/29 05:03:29;;;;;;;6.95;2.00;;;3.70;99.90;;;;;;5094145;28;20061;-66
2021/03/29 05:05:55;;;;;;;3.50;1.88;;;3.70;99.90;;;;;;5093721;28;20024;-67
2021/03/29 05:08:21;;;;;;;4.03;1.88;;;3.70;99.90;;;;;;5093390;28;20472;-66
2021/03/29 05:10:47;;;;;;;5.43;2.08;;;3.60;99.90;;;;;;5093223;28;20028;-67
2021/03/29 05:13:12;;;;;;;3.72;2.13;;;3.50;99.90;;;;;;5093026;28;20136;-66
2021/03/29 05:15:38;;;;;;;3.20;2.20;;;3.50;99.90;;;;;;5093295;28;20077;-67
2021/03/29 05:18:04;;;;;;;4.80;2.22;;;3.50;99.90;;;;;;5093359;28;20051;-66
2021/03/29 05:20:30;;;;;;;5.32;1.77;;;3.50;99.90;;;;;;5093046;28;20609;-66
2021/03/29 05:22:56;;;;;;;6.65;2.00;;;3.60;99.90;;;;;;5093044;28;20027;-67
2021/03/29 05:25:21;;;;;;;3.95;1.70;;;3.60;99.90;;;;;;5093757;28;20032;-67
2021/03/29 05:27:47;;;;;;;51.78;3.72;;;3.60;99.90;;;;;;5092697;28;20026;-66
2021/03/29 05:30:13;;;;;;;6.40;1.80;;;3.90;99.90;;;;;;5092828;28;20027;-66
2021/03/29 05:32:39;;;;;;;2.92;1.35;;;4.20;99.90;;;;;;5093282;28;20039;-65
2021/03/29 05:35:06;;;;;;;5.35;1.90;;;4.10;99.90;;;;;;5093448;28;20479;-66
2021/03/29 05:37:32;;;;;;;3.13;1.25;;;3.90;99.90;;;;;;5093600;28;20097;-66
2021/03/29 05:39:59;;;;;;;2.00;1.50;;;3.90;99.90;;;;;;5093318;28;20446;-66
2021/03/29 05:42:27;;;;;;;3.42;1.80;;;3.90;99.90;;;;;;5093341;28;20020;-67
2021/03/29 05:44:59;;;;;;;3.25;1.70;;;3.80;99.90;;;;;;5093439;28;20024;-66
2021/03/29 05:47:25;;;;;;;3.17;1.60;;;3.80;99.90;;;;;;5074927;28;20122;-67
2021/03/29 05:49:51;;;;;;;5.15;1.98;;;3.70;99.90;;;;;;5093205;28;20028;-66
2021/03/29 05:52:17;;;;;;;6.95;1.92;;;3.70;99.90;;;;;;5093021;28;20502;-66
2021/03/29 05:54:43;;;;;;;2.25;1.55;;;3.70;99.90;;;;;;5093075;28;20036;-67
2021/03/29 05:57:10;;;;;;;2.33;1.50;;;3.70;99.90;;;;;;5092679;28;20364;-66
2021/03/29 05:59:42;;;;;;;4.45;1.58;;;3.60;99.90;;;;;;5092590;28;20028;-67
2021/03/29 06:02:23;;;;;;;4.65;1.70;;;3.70;99.90;;;;;;5089628;28;20027;-67
2021/03/29 06:04:50;;;;;;;1.95;1.52;;;3.60;99.90;;;;;;5090058;28;20406;-66
2021/03/29 06:07:26;;;;;;;2.28;1.50;;;3.70;99.90;;;;;;5091735;28;20426;-65
2021/03/29 06:09:54;;;;;;;2.22;1.20;;;3.70;99.90;;;;;;5090066;28;20021;-66
2021/03/29 06:12:22;;;;;;;2.08;1.27;;;3.70;99.90;;;;;;5091901;28;20044;-67
2021/03/29 06:14:59;;;;;;;2.97;1.35;;;4.10;99.90;;;;;;5092556;28;20036;-66
2021/03/29 06:17:25;;;;;;;8.68;1.75;;;4.40;99.90;;;;;;5092567;28;20017;-67
2021/03/29 06:19:58;;;;;;;5.47;1.40;;;4.70;99.90;;;;;;5096700;28;20414;-66
2021/03/29 06:22:31;;;;;;;2.47;1.10;;;5.30;99.90;;;;;;5090621;28;20048;-66
2021/03/29 06:25:01;;;;;;;2.85;1.20;;;5.10;99.90;;;;;;5091707;28;20422;-65
2021/03/29 06:27:32;;;;;;;4.10;1.42;;;4.80;99.90;;;;;;5088569;28;20039;-66
2021/03/29 06:30:11;;;;;;;1.42;1.27;;;4.50;99.90;;;;;;5092743;28;20422;-65
2021/03/29 06:32:37;;;;;;;1.33;1.23;;;4.30;99.90;;;;;;5093565;28;20118;-67
2021/03/29 06:35:20;;;;;;;3.33;1.23;;;4.20;99.90;;;;;;5090078;28;20115;-65
2021/03/29 06:37:46;;;;;;;2.45;1.40;;;4.10;99.90;;;;;;5093703;28;20020;-76
2021/03/29 06:40:13;;;;;;;2.78;1.10;;;4.00;99.90;;;;;;5108201;28;20028;-76
2021/03/29 06:42:39;;;;;;;3.85;1.30;;;4.00;99.90;;;;;;5091779;28;20771;-79
2021/03/29 06:45:16;;;;;;;2.53;1.40;;;3.90;99.90;;;;;;5091643;28;20039;-79
2021/03/29 06:47:43;;;;;;;1.33;1.10;;;3.90;99.90;;;;;;5091701;28;20067;-70
2021/03/29 06:50:26;;;;;;;2.40;1.00;;;4.00;99.90;;;;;;5091556;28;20360;-72
2021/03/29 06:52:52;;;;;;;1.70;1.35;;;4.00;99.90;;;;;;5090796;28;20024;-71
2021/03/29 06:55:24;;;;;;;1.48;1.35;;;4.00;99.90;;;;;;5091423;28;20036;-73
2021/03/29 06:58:10;;;;;;;3.13;2.22;;;4.00;99.90;;;;;;5091434;28;20058;-74
2021/03/29 07:00:38;;;;;;;2.90;1.30;;;4.00;99.90;;;;;;5091242;28;20028;-74
2021/03/29 07:03:08;;;;;;;0.85;0.85;;;4.00;99.90;;;;;;5091303;28;20055;-77
2021/03/29 07:05:35;;;;;;;;;;;4.00;99.90;;;;;;5091753;28;20031;-76
2021/03/29 07:08:02;;;;;;;1.70;1.10;;;4.00;99.90;;;;;;5090938;28;19908;-76
2021/03/29 07:10:29;;;;;;;1.48;1.25;;;4.00;99.90;;;;;;5091448;28;20035;-74
2021/03/29 07:12:55;;;;;;;2.78;1.00;;;4.00;99.90;;;;;;5091145;28;20129;-75
2021/03/29 07:15:22;;;;;;;2.35;1.27;;;4.00;99.90;;;;;;5091339;28;20036;-75
2021/03/29 07:17:48;;;;;;;1.27;1.00;;;4.00;99.90;;;;;;5089567;28;20020;-75
2021/03/29 07:20:21;;;;;;;8.68;1.00;;;4.00;99.90;;;;;;5092771;28;20032;-79
2021/03/29 07:22:48;;;;;;;1.38;1.27;;;5.10;99.90;;;;;;5096957;28;20032;-82
2021/03/29 07:25:15;;;;;;;1.45;0.80;;;5.70;99.90;;;;;;5095270;28;20391;-81
2021/03/29 07:27:45;;;;;;;4.25;1.00;;;5.50;99.90;;;;;;5095676;28;20024;-80
2021/03/29 07:30:15;;;;;;;0.80;0.80;;;5.10;99.90;;;;;;5095906;28;20016;-81
2021/03/29 07:32:41;;;;;;;0.60;0.60;;;4.80;99.90;;;;;;5095970;28;20024;-81
2021/03/29 07:35:08;;;;;;;0.90;0.73;;;4.60;99.90;;;;;;5095578;28;20086;-81
2021/03/29 07:37:35;;;;;;;0.60;0.60;;;4.60;99.90;;;;;;5095762;28;20031;-80
2021/03/29 07:40:26;;;;;;;0.50;0.50;;;4.50;99.90;;;;;;5095484;28;20024;-82
2021/03/29 07:42:54;;;;;;;1.00;0.70;;;4.50;99.90;;;;;;5086907;28;20501;-81
2021/03/29 07:45:24;;;;;;;0.85;0.75;;;4.40;99.90;;;;;;5095409;28;20468;-81
2021/03/29 07:47:57;;;;;;;0.68;0.68;;;4.40;99.90;;;;;;5095256;28;20384;-80
2021/03/29 07:50:25;;;;;;;4.45;1.10;;;4.40;99.90;;;;;;5095359;28;20415;-79
2021/03/29 07:52:54;;;;;;;0.88;0.82;;;4.50;99.90;;;;;;5095238;28;20103;-80
2021/03/29 07:55:34;;;;;;;1.83;0.98;;;4.50;99.90;;;;;;5095029;28;20081;-82
2021/03/29 07:58:04;;;;;;;1.25;0.90;;;4.60;99.90;;;;;;5095394;28;20102;-85
2021/03/29 08:00:30;;;;;;;4.32;1.00;;;4.60;99.90;;;;;;5095098;28;20028;-81
2021/03/29 08:02:58;;;;;;;0.73;0.70;;;4.50;99.90;;;;;;5095347;28;20077;-78
2021/03/29 08:05:43;;;;;;;5.88;0.98;;;4.60;99.90;;;;;;5094901;28;20020;-77
2021/03/29 08:11:10;;;;;;;6.32;1.08;;;4.60;99.90;;;;;;5095254;28;20089;-79
2021/03/29 08:13:39;;;;;;;5.63;1.33;;;4.60;99.90;;;;;;5094779;28;20461;-78
2021/03/29 08:16:10;;;;;;;5.82;1.50;;;4.60;99.90;;;;;;5094603;28;20028;-79
2021/03/29 08:19:25;;;;;;;0.63;0.63;;;4.60;99.90;;;;;;5094846;28;20078;-75
2021/03/29 08:22:09;;;;;;;2.78;1.05;;;4.60;99.90;;;;;;5094827;28;20024;-77
2021/03/29 08:25:02;;;;;;;0.60;0.60;;;4.70;99.90;;;;;;5085131;28;20048;-77
2021/03/29 08:27:30;;;;;;;1.30;0.60;;;4.80;99.90;;;;;;5091102;28;20060;-75
2021/03/29 08:30:13;;;;;;;0.80;0.80;;;4.50;99.90;;;;;;5094777;28;20020;-77
2021/03/29 08:32:40;;;;;;;0.70;0.70;;;4.30;99.90;;;;;;5094272;28;20062;-75
2021/03/29 08:35:18;;;;;;;2.92;0.80;;;4.20;99.90;;;;;;5094727;28;20036;-76
2021/03/29 08:37:50;;;;;;;1.10;0.70;;;4.10;99.90;;;;;;5094297;28;20023;-79
2021/03/29 08:40:23;;;;;;;3.85;0.93;;;4.20;99.90;;;;;;5094276;28;20031;-77
2021/03/29 08:42:52;;;;;;;2.88;0.88;;;4.20;99.90;;;;;;5094343;28;20039;-75
2021/03/29 08:45:20;;;;;;;3.27;0.90;;;4.20;99.90;;;;;;5094166;28;20536;-74
2021/03/29 08:47:48;;;;;;;3.80;0.80;;;4.30;99.90;;;;;;5094055;28;20071;-75
2021/03/29 08:50:20;;;;;;;6.22;0.88;;;4.30;99.90;;;;;;5093782;28;20029;-74
2021/03/29 08:53:00;;;;;;;1.17;0.80;;;4.30;99.90;;;;;;5094359;28;20051;-77
2021/03/29 08:55:38;;;;;;;0.70;0.68;;;4.30;99.90;;;;;;5093780;28;20446;-79
2021/03/29 08:58:05;;;;;;;1.63;0.80;;;4.20;99.90;;;;;;5093915;28;20036;-75
2021/03/29 09:00:39;;;;;;;1.98;1.00;;;4.30;99.90;;;;;;5093592;28;20020;-74
2021/03/29 09:03:13;;;;;;;5.60;1.23;;;4.30;99.90;;;;;;5094018;28;20370;-75
2021/03/29 09:05:39;;;;;;;2.55;0.82;;;4.30;99.90;;;;;;5094180;28;20020;-74
2021/03/29 09:08:14;;;;;;;1.00;0.80;;;4.20;99.90;;;;;;5093511;28;20464;-77
2021/03/29 09:10:43;;;;;;;2.85;0.95;;;4.20;99.90;;;;;;5093862;28;20649;-74
2021/03/29 09:13:11;;;;;;;1.15;0.80;;;4.30;99.90;;;;;;5093457;28;20430;-75
2021/03/29 09:15:39;;;;;;;4.15;1.30;;;4.20;99.90;;;;;;5093625;28;20119;-75
2021/03/29 09:18:06;;;;;;;1.98;0.95;;;4.20;99.90;;;;;;5093368;28;20031;-75
2021/03/29 09:20:36;;;;;;;3.30;1.10;;;4.20;99.90;;;;;;5093909;28;20024;-75
2021/03/29 09:23:02;;;;;;;3.58;1.00;;;4.20;99.90;;;;;;5093864;28;20024;-75
2021/03/29 09:25:34;;;;;;;1.33;1.00;;;4.20;99.90;;;;;;5093803;28;20492;-75
2021/03/29 09:28:40;;;;;;;3.63;1.17;;;4.20;99.90;;;;;;5093392;28;20054;-75
2021/03/29 09:31:24;;;;;;;0.95;0.85;;;4.20;99.90;;;;;;5030908;28;20026;-76
2021/03/29 09:33:52;;;;;;;2.58;1.08;;;4.10;99.90;;;;;;5089864;28;20040;-74
2021/03/29 09:36:20;;;;;;;1.48;1.00;;;4.10;99.90;;;;;;5092769;28;20016;-73
2021/03/29 09:38:50;;;;;;;1.95;0.95;;;4.10;99.90;;;;;;5092745;28;20403;-74
2021/03/29 09:41:22;;;;;;;1.23;1.13;;;4.10;99.90;;;;;;5091531;28;20024;-74
2021/03/29 09:43:50;;;;;;;1.13;1.02;;;4.10;99.90;;;;;;5091188;28;20035;-73
2021/03/29 09:46:16;;;;;;;1.00;0.90;;;4.00;99.90;;;;;;5092457;28;20031;-75
2021/03/29 09:48:43;;;;;;;1.45;1.13;;;4.00;99.90;;;;;;5092940;28;20023;-73
2021/03/29 09:51:20;;;;;;;1.67;1.13;;;4.00;99.90;;;;;;5092502;28;20031;-75
2021/03/29 09:53:46;;;;;;;3.55;1.20;;;4.00;99.90;;;;;;5092642;28;20107;-77
2021/03/29 09:56:11;;;;;;;8.45;1.40;;;4.00;99.90;;;;;;5092797;28;20497;-79
2021/03/29 09:58:45;;;;;;;3.40;1.08;;;3.90;99.90;;;;;;5092740;28;20020;-77
2021/03/29 10:01:22;;;;;;;1.05;1.02;;;3.90;99.90;;;;;;5092962;28;20024;-78
2021/03/29 10:04:00;;;;;;;3.03;1.42;;;3.90;99.90;;;;;;5092657;28;20595;-75
2021/03/29 10:06:30;;;;;;;5.90;0.90;;;3.90;99.90;;;;;;5092379;28;20028;-77
2021/03/29 10:08:57;;;;;;;;;;;3.80;99.90;;;;;;5092544;28;20032;-76
2021/03/29 10:11:24;;;;;;;2.78;1.20;;;3.80;99.90;;;;;;5092363;28;20159;-77
2021/03/29 10:13:49;;;;;;;3.42;1.10;;;3.90;99.90;;;;;;5092575;28;20021;-76
2021/03/29 10:16:25;;;;;;;5.18;1.38;;;3.90;99.90;;;;;;5092398;28;20054;-77
2021/03/29 10:19:06;;;;;;;5.00;1.15;;;4.00;99.90;;;;;;5092456;28;20467;-77
2021/03/29 10:21:34;;;;;;;8.98;1.35;;;4.00;99.90;;;;;;5092864;28;20020;-76
2021/03/29 10:24:52;;;;;;;3.38;1.10;;;4.00;99.90;;;;;;5092635;28;20081;-76
2021/03/29 10:27:18;;;;;;;2.42;1.20;;;4.10;99.90;;;;;;5041824;28;20032;-76
2021/03/29 10:29:46;;;;;;;2.40;0.95;;;4.10;99.90;;;;;;5072008;28;20554;-77
2021/03/29 10:32:19;;;;;;;3.45;0.90;;;4.10;99.90;;;;;;5072132;28;20582;-78
2021/03/29 10:34:47;;;;;;;4.05;1.02;;;4.10;99.90;;;;;;5072038;28;20036;-77
2021/03/29 10:37:21;;;;;;;0.98;0.80;;;4.10;99.90;;;;;;5072113;28;20422;-76
2021/03/29 10:39:47;;;;;;;3.75;0.73;;;4.10;99.90;;;;;;5074189;28;20043;-76
2021/03/29 10:42:14;;;;;;;0.88;0.85;;;4.10;99.90;;;;;;5073262;28;20036;-74
2021/03/29 10:44:41;;;;;;;4.40;0.90;;;4.20;99.90;;;;;;5071921;28;20028;-72
2021/03/29 10:47:07;;;;;;;2.42;0.80;;;4.20;99.90;;;;;;5071820;28;20420;-72
2021/03/29 10:49:32;;;;;;;0.88;0.82;;;4.20;99.90;;;;;;5072103;28;20081;-72
2021/03/29 10:51:58;;;;;;;1.23;0.90;;;4.30;99.90;;;;;;5071715;28;20047;-72
2021/03/29 10:54:24;;;;;;;0.90;0.77;;;4.30;99.90;;;;;;5091006;28;20043;-73
2021/03/29 10:56:50;;;;;;;4.15;1.13;;;4.40;99.90;;;;;;5073498;28;20490;-74
2021/03/29 10:59:16;;;;;;;0.80;0.80;;;4.40;99.90;;;;;;5091838;28;20016;-72
2021/03/29 11:01:41;;;;;;;2.20;0.90;;;4.40;99.90;;;;;;5091770;28;20603;-72
2021/03/29 11:04:07;;;;;;;3.20;1.02;;;4.40;99.90;;;;;;5091397;28;20047;-71
2021/03/29 11:06:33;;;;;;;3.30;1.20;;;4.40;99.90;;;;;;5092253;28;20424;-72
2021/03/29 11:08:59;;;;;;;7.18;1.15;;;4.40;99.90;;;;;;5092016;28;20027;-72
2021/03/29 11:11:25;;;;;;;6.20;1.13;;;4.40;99.90;;;;;;5091974;28;20035;-72
2021/03/29 11:13:50;;;;;;;3.35;0.90;;;4.50;99.90;;;;;;5092124;28;20480;-72
2021/03/29 11:16:16;;;;;;;1.08;0.93;;;4.40;99.90;;;;;;5091937;28;20028;-72
2021/03/29 11:18:42;;;;;;;4.00;1.13;;;4.50;99.90;;;;;;5092121;28;20031;-71
2021/03/29 11:21:08;;;;;;;6.00;1.02;;;4.50;99.90;;;;;;5091818;28;20020;-72
2021/03/29 11:23:34;;;;;;;6.07;0.98;;;4.50;99.90;;;;;;5091552;28;20071;-72
2021/03/29 11:26:00;;;;;;;1.80;1.02;;;4.50;99.90;;;;;;5091925;28;20104;-73
2021/03/29 11:28:26;;;;;;;2.17;0.98;;;4.40;99.90;;;;;;5090913;28;20561;-72
2021/03/29 11:30:51;;;;;;;2.90;0.88;;;4.40;99.90;;;;;;5092000;28;20020;-67
2021/03/29 11:33:17;;;;;;;1.88;1.13;;;4.50;99.90;;;;;;5090437;28;20028;-69
2021/03/29 11:35:43;;;;;;;1.38;1.00;;;5.30;99.90;;;;;;5091884;28;20042;-74
2021/03/29 11:38:09;;;;;;;1.10;0.80;;;5.20;99.90;;;;;;5091278;28;20047;-74
2021/03/29 11:40:35;;;;;;;1.20;0.90;;;5.10;99.90;;;;;;5091656;28;20031;-74
2021/03/29 11:43:01;;;;;;;2.15;0.90;;;4.90;99.90;;;;;;5091564;28;20028;-74
2021/03/29 11:45:27;;;;;;;3.58;1.00;;;4.90;99.90;;;;;;5091673;28;20028;-74
2021/03/29 11:47:53;;;;;;;1.20;0.80;;;4.80;99.90;;;;;;5091304;28;20020;-73
2021/03/29 11:50:19;;;;;;;1.95;0.82;;;4.80;99.90;;;;;;5091616;28;20065;-73
2021/03/29 11:52:45;;;;;;;1.08;0.73;;;4.70;99.90;;;;;;5092876;28;20024;-73
2021/03/29 11:55:11;;;;;;;1.45;0.80;;;4.80;99.90;;;;;;5090148;28;20119;-75
2021/03/29 11:57:42;;;;;;;5.43;1.10;;;4.80;99.90;;;;;;5091620;28;20048;-75
2021/03/29 12:00:18;;;;;;;2.00;0.80;;;4.80;99.90;;;;;;5091196;28;20035;-75
2021/03/29 12:02:57;;;;;;;5.97;1.08;;;4.90;99.90;;;;;;5091783;28;20047;-74
2021/03/29 12:05:32;;;;;;;1.73;1.00;;;4.90;99.90;;;;;;5091713;28;20107;-75
2021/03/29 12:13:33;;;;;;;1.40;0.77;;;5.10;99.90;;;;;;5095216;28;20078;-75
2021/03/29 12:15:59;;;;;;;13.45;1.63;;;5.10;99.90;;;;;;5094538;28;20426;-71
2021/03/29 12:18:58;;;;;;;5.78;0.90;;;5.10;99.90;;;;;;5092607;28;20505;-71
2021/03/29 12:21:21;;;;;;;3.83;0.88;;;5.10;99.90;;;;;;5071367;28;20051;-72
2021/03/29 12:23:49;;;;;;;2.38;0.93;;;5.20;99.90;;;;;;5074521;28;20021;-71
2021/03/29 12:26:16;;;;;;;3.92;1.50;;;5.20;99.90;;;;;;5074353;28;20036;-71
2021/03/29 12:28:47;;;;;;;0.95;0.80;;;5.30;99.90;;;;;;5074579;28;20013;-71
2021/03/29 12:31:13;;;;;;;;;;;5.30;99.90;;;;;;5074942;28;20109;-71
2021/03/29 12:33:42;;;;;;;2.25;0.60;;;5.20;99.90;;;;;;5074227;28;19904;-71
2021/03/29 12:36:09;;;;;;;14.30;1.20;;;5.20;99.90;;;;;;5074231;28;20032;-71
2021/03/29 12:38:38;;;;;;;2.80;0.90;;;5.20;99.90;;;;;;5074134;28;20021;-72
2021/03/29 12:41:07;;;;;;;10.43;1.20;;;5.20;99.90;;;;;;5074102;28;20062;-73
2021/03/29 12:43:43;;;;;;;7.88;2.03;;;5.20;99.90;;;;;;5074382;28;20017;-72
2021/03/29 12:46:10;;;;;;;9.70;2.05;;;5.30;99.90;;;;;;5074302;28;20438;-72
2021/03/29 12:48:39;;;;;;;6.47;1.23;;;5.30;99.90;;;;;;5074151;28;20024;-72
2021/03/29 12:51:06;;;;;;;7.55;2.22;;;5.40;99.90;;;;;;5073878;28;20033;-72
2021/03/29 12:53:33;;;;;;;6.35;1.55;;;5.40;99.90;;;;;;5080161;28;20020;-72
2021/03/29 12:56:00;;;;;;;5.60;1.30;;;5.50;99.90;;;;;;5094408;28;20082;-73
2021/03/29 12:58:26;;;;;;;10.85;1.52;;;5.50;99.90;;;;;;5093983;28;20027;-72
2021/03/29 13:00:53;;;;;;;5.32;1.48;;;5.60;99.90;;;;;;5093856;28;20024;-72
2021/03/29 13:03:21;;;;;;;6.55;1.90;;;5.60;99.90;;;;;;5093713;28;20028;-73
2021/03/29 13:06:06;;;;;;;3.95;1.50;;;5.60;99.90;;;;;;5093336;28;20031;-73
2021/03/29 13:08:33;;;;;;;7.15;1.45;;;5.70;99.90;;;;;;5073547;28;20031;-73
2021/03/29 13:11:28;;;;;;;2.72;1.05;;;5.70;99.90;;;;;;5075676;28;20029;-72
2021/03/29 13:13:52;;;;;;;4.85;1.50;;;5.70;99.90;;;;;;5092808;28;20404;-72
2021/03/29 13:16:18;;;;;;;1.30;1.20;;;6.30;99.90;;;;;;5093901;28;20036;-72
2021/03/29 13:18:44;;;;;;;4.65;1.27;;;6.40;99.90;;;;;;5093143;28;20088;-73
2021/03/29 13:21:10;;;;;;;3.78;1.92;;;6.20;99.90;;;;;;5093455;28;20526;-72
2021/03/29 13:23:36;;;;;;;2.78;1.30;;;6.00;99.90;;;;;;5093566;28;20063;-72
2021/03/29 13:26:02;;;;;;;4.32;1.30;;;5.90;99.90;;;;;;5093705;28;20109;-72
2021/03/29 13:28:28;;;;;;;2.10;1.58;;;5.90;99.90;;;;;;5093283;28;20038;-72
2021/03/29 13:30:54;;;;;;;2.03;1.40;;;5.80;99.90;;;;;;5093877;28;20023;-72
2021/03/29 13:33:19;;;;;;;1.33;1.20;;;5.80;99.90;;;;;;5093289;28;20031;-70
2021/03/29 13:35:45;;;;;;;2.97;1.45;;;6.20;99.90;;;;;;5093567;28;20036;-71
2021/03/29 13:38:13;;;;;;;3.50;1.42;;;6.30;99.90;;;;;;5095192;28;20482;-72
2021/03/29 13:40:40;;;;;;;5.68;1.75;;;6.10;99.90;;;;;;5091533;28;20036;-71
2021/03/29 13:43:09;;;;;;;2.75;1.52;;;5.90;99.90;;;;;;5093048;28;20100;-71
2021/03/29 13:45:35;;;;;;;2.45;1.65;;;5.70;99.90;;;;;;5092985;28;20056;-72
2021/03/29 13:48:00;;;;;;;1.77;1.55;;;5.60;99.90;;;;;;5093048;28;20092;-71
2021/03/29 13:50:27;;;;;;;2.17;1.55;;;5.50;99.90;;;;;;5092741;28;20476;-71
2021/03/29 13:52:54;;;;;;;4.55;1.50;;;5.50;99.90;;;;;;5092278;28;20024;-72
2021/03/29 13:55:21;;;;;;;2.75;1.67;;;5.50;99.90;;;;;;5092525;28;20032;-72
2021/03/29 13:57:50;;;;;;;3.40;2.17;;;5.40;99.90;;;;;;5072769;28;20032;-72
2021/03/29 14:00:17;;;;;;;2.53;1.83;;;5.30;99.90;;;;;;5072500;28;20169;-73
2021/03/29 14:02:51;;;;;;;4.88;2.10;;;5.30;99.90;;;;;;5072305;28;20096;-72
2021/03/29 14:05:18;;;;;;;4.85;2.03;;;5.30;99.90;;;;;;5074563;28;20062;-73
2021/03/29 14:07:44;;;;;;;2.88;2.10;;;5.30;99.90;;;;;;5092141;28;20016;-72
2021/03/29 14:10:15;;;;;;;4.75;2.08;;;5.30;99.90;;;;;;5091712;28;20391;-72
2021/03/29 14:12:43;;;;;;;2.10;1.48;;;5.30;99.90;;;;;;5091194;28;20044;-72
2021/03/29 14:15:09;;;;;;;3.45;2.10;;;5.30;99.90;;;;;;5092112;28;20032;-72
2021/03/29 14:17:35;;;;;;;4.35;2.40;;;5.30;99.90;;;;;;5092127;28;20589;-72
2021/03/29 14:20:02;;;;;;;8.75;2.28;;;5.30;99.90;;;;;;5092231;28;20123;-72
2021/03/29 14:22:27;;;;;;;2.75;2.05;;;5.30;99.90;;;;;;5092072;28;20024;-72
2021/03/29 14:24:55;;;;;;;6.47;2.08;;;5.30;99.90;;;;;;5092207;28;20035;-75
2021/03/29 14:27:22;;;;;;;5.20;2.20;;;5.30;99.90;;;;;;5091641;28;20494;-75
2021/03/29 14:29:47;;;;;;;5.47;2.28;;;5.30;99.90;;;;;;5088446;28;20046;-75
2021/03/29 14:32:18;;;;;;;8.30;2.00;;;5.30;99.90;;;;;;5094551;28;20016;-76
2021/03/29 14:35:35;;;;;;;;;;;5.30;99.90;;;;;;5090930;28;20028;-75
2021/03/29 14:40:47;;;;;;;3.80;2.10;;;5.20;99.90;;;;;;5062799;28;20139;-74
2021/03/29 14:45:51;;;;;;;3.95;1.90;;;5.20;99.90;;;;;;5092245;28;20120;-73
2021/03/29 14:48:17;;;;;;;5.82;2.28;;;5.20;99.90;;;;;;5091842;28;20024;-74
2021/03/29 14:50:43;;;;;;;1.73;1.60;;;5.20;99.90;;;;;;5091380;28;20513;-73
2021/03/29 14:53:08;;;;;;;3.00;1.90;;;5.20;99.90;;;;;;5091259;28;20024;-74
2021/03/29 14:55:34;;;;;;;2.58;1.65;;;5.20;99.90;;;;;;5091282;28;20044;-73
2021/03/29 14:58:00;;;;;;;3.13;1.60;;;5.20;99.90;;;;;;5089191;28;20030;-73
2021/03/29 15:00:26;;;;;;;4.60;1.85;;;5.20;99.90;;;;;;5091134;28;20030;-71
2021/03/29 15:08:13;;;;;;;7.85;1.67;;;5.20;99.90;;;;;;5091190;28;20021;-75
2021/03/29 15:10:38;;;;;;;2.35;1.75;;;5.10;99.90;;;;;;5091083;28;20506;-74
2021/03/29 15:13:04;;;;;;;4.55;1.42;;;5.10;99.90;;;;;;5090825;28;20116;-75
2021/03/29 15:15:30;;;;;;;3.22;1.45;;;5.20;99.90;;;;;;5091509;28;20035;-75
2021/03/29 15:17:56;;;;;;;2.47;1.60;;;5.50;99.90;;;;;;5091109;28;20776;-75
2021/03/29 15:20:21;;;;;;;3.85;1.52;;;5.40;99.90;;;;;;5091318;28;20020;-75
2021/03/29 15:22:47;;;;;;;2.17;1.40;;;5.30;99.90;;;;;;5091108;28;20028;-75
2021/03/29 15:25:14;;;;;;;1.40;1.30;;;5.20;99.90;;;;;;5091112;28;20024;-77
2021/03/29 15:27:40;;;;;;;3.03;1.50;;;5.20;99.90;;;;;;5091263;28;20016;-67
2021/03/29 15:30:07;;;;;;;1.77;1.25;;;5.20;99.90;;;;;;5091555;28;20024;-73
2021/03/29 15:32:33;;;;;;;1.42;1.00;;;5.70;99.90;;;;;;5090519;28;20027;-77
2021/03/29 15:35:00;;;;;;;1.75;1.08;;;5.60;99.90;;;;;;5090753;28;20040;-76
2021/03/29 15:37:26;;;;;;;1.48;1.08;;;5.60;99.90;;;;;;5090947;28;20013;-76
2021/03/29 15:39:51;;;;;;;2.08;1.10;;;5.50;99.90;;;;;;5091484;28;20463;-74
2021/03/29 15:42:17;;;;;;;2.25;1.30;;;5.40;99.90;;;;;;5095865;28;20099;-74
2021/03/29 15:44:43;;;;;;;2.92;1.10;;;5.40;99.90;;;;;;5098232;28;20024;-77
2021/03/29 15:47:09;;;;;;;3.25;1.10;;;5.40;99.90;;;;;;5095816;28;20024;-71
2021/03/29 15:49:35;;;;;;;2.13;1.38;;;5.40;99.90;;;;;;5095634;28;20035;-72
2021/03/29 15:52:01;;;;;;;4.15;2.10;;;5.40;99.90;;;;;;5094957;28;20027;-76
2021/03/29 15:54:27;;;;;;;6.68;2.17;;;5.40;99.90;;;;;;5094343;28;20043;-73
2021/03/29 15:56:57;;;;;;;2.22;1.52;;;5.30;99.90;;;;;;5095269;28;20020;-75
2021/03/29 15:59:27;;;;;;;1.63;0.82;;;5.40;99.90;;;;;;5095148;28;20031;-77
2021/03/29 16:01:57;;;;;;;1.98;0.80;;;5.40;99.90;;;;;;5095296;28;20541;-76
2021/03/29 16:04:29;;;;;;;3.13;0.98;;;5.40;99.90;;;;;;5095354;28;20444;-76
2021/03/29 16:06:55;;;;;;;1.92;0.77;;;5.40;99.90;;;;;;5095516;28;20024;-76
2021/03/29 16:09:20;;;;;;;1.50;0.90;;;5.30;99.90;;;;;;5094920;28;20040;-78
2021/03/29 16:11:46;;;;;;;4.60;1.00;;;5.40;99.90;;;;;;5095168;28;20485;-73
2021/03/29 16:14:13;;;;;;;1.23;1.02;;;5.30;99.90;;;;;;5094718;28;20115;-73
2021/03/29 16:16:38;;;;;;;5.10;1.10;;;5.30;99.90;;;;;;5095071;28;20475;-73
2021/03/29 16:19:04;;;;;;;1.60;0.75;;;5.20;99.90;;;;;;5094884;28;20035;-73
2021/03/29 16:21:30;;;;;;;1.15;0.70;;;5.20;99.90;;;;;;5094844;28;20023;-72
2021/03/29 16:23:56;;;;;;;2.08;0.90;;;5.30;99.90;;;;;;5095206;28;20043;-74
2021/03/29 16:26:24;;;;;;;2.58;0.70;;;5.20;99.90;;;;;;5095002;28;20612;-73
2021/03/29 16:28:50;;;;;;;2.67;1.60;;;5.20;99.90;;;;;;5094714;28;20024;-74
2021/03/29 16:31:16;;;;;;;1.60;0.88;;;5.20;99.90;;;;;;5094663;28;20019;-79
2021/03/29 16:33:42;;;;;;;1.50;0.70;;;5.30;99.90;;;;;;5094621;28;20024;-79
2021/03/29 16:36:08;;;;;;;1.85;1.10;;;5.30;99.90;;;;;;5094657;28;20032;-77
2021/03/29 16:38:34;;;;;;;0.80;0.80;;;5.30;99.90;;;;;;5094757;28;20027;-78
2021/03/29 16:41:00;;;;;;;1.13;0.90;;;5.30;99.90;;;;;;5094428;28;20152;-79
2021/03/29 16:43:26;;;;;;;1.05;0.77;;;5.30;99.90;;;;;;5093871;28;20024;-77
2021/03/29 16:45:52;;;;;;;2.42;0.80;;;5.30;99.90;;;;;;5092055;28;20020;-78
2021/03/29 16:48:17;;;;;;;1.90;0.98;;;5.30;99.90;;;;;;5093429;28;20020;-78
2021/03/29 16:50:43;;;;;;;2.38;1.10;;;5.20;99.90;;;;;;5094498;28;20044;-82
2021/03/29 16:53:10;;;;;;;2.10;1.10;;;5.30;99.90;;;;;;5092647;28;20471;-80
2021/03/29 16:55:36;;;;;;;2.30;1.05;;;5.30;99.90;;;;;;5094196;28;20062;-79
2021/03/29 16:58:02;;;;;;;1.05;0.85;;;5.30;99.90;;;;;;5094135;28;20020;-80
2021/03/29 17:00:28;;;;;;;1.40;1.00;;;5.30;99.90;;;;;;5094219;28;20039;-74
2021/03/29 17:02:55;;;;;;;2.60;1.00;;;5.30;99.90;;;;;;5094408;28;20024;-80
2021/03/29 17:05:21;;;;;;;1.30;0.95;;;5.20;99.90;;;;;;5093916;28;20418;-77
2021/03/29 17:07:46;;;;;;;2.30;1.02;;;5.30;99.90;;;;;;5093962;28;20024;-78
2021/03/29 17:10:12;;;;;;;2.25;1.17;;;5.30;99.90;;;;;;5093892;28;20028;-78
2021/03/29 17:12:38;;;;;;;1.50;1.35;;;5.30;99.90;;;;;;5093730;28;20051;-80
2021/03/29 17:15:09;;;;;;;1.10;1.00;;;5.30;99.90;;;;;;5093736;28;20400;-77
2021/03/29 17:17:35;;;;;;;;;;;5.30;99.90;;;;;;5094106;28;20028;-78
2021/03/29 17:20:01;;;;;;;1.33;1.23;;;5.30;99.90;;;;;;5093799;28;19911;-81
2021/03/29 17:22:27;;;;;;;1.60;1.25;;;5.30;99.90;;;;;;5093641;28;20020;-77
2021/03/29 17:24:54;;;;;;;2.13;1.20;;;5.30;99.90;;;;;;5093501;28;20026;-77
2021/03/29 17:27:20;;;;;;;1.85;1.20;;;5.20;99.90;;;;;;5093756;28;20403;-77
2021/03/29 17:29:45;;;;;;;1.52;1.33;;;5.30;99.90;;;;;;5093371;28;20028;-72
2021/03/29 17:32:16;;;;;;;2.35;1.45;;;5.30;99.90;;;;;;5092899;28;20028;-69
2021/03/29 17:34:44;;;;;;;2.55;1.30;;;5.30;99.90;;;;;;5089706;28;20031;-69
2021/03/29 17:37:11;;;;;;;3.15;1.20;;;5.30;99.90;;;;;;5093358;28;20357;-71